sensor_id;sensor_type;location;lat;lon;timestamp;pressure;altitude;pressure_sealevel;temperature;humidity
52735;BME280;38631;47.572;10.704;2023-06-14T00:01:17;92111.47;;;11.42;64.74
52735;BME280;38631;47.572;10.704;2023-06-14T00:03:45;92104.56;;;11.02;64.63
52735;BME280;38631;47.572;10.704;2023-06-14T00:06:12;92111.59;;;11.07;65.38
52735;BME280;38631;47.572;10.704;2023-06-14T00:08:37;92108.00;;;11.12;64.99
52735;BME280;38631;47.572;10.704;2023-06-14T00:11:03;92108.38;;;11.31;64.58
52735;BME280;38631;47.572;10.704;2023-06-14T00:13:28;92103.00;;;11.49;64.16
52735;BME280;38631;47.572;10.704;2023-06-14T00:15:54;92095.31;;;11.47;64.26
52735;BME280;38631;47.572;10.704;2023-06-14T00:18:20;92099.41;;;11.44;64.58
52735;BME280;38631;47.572;10.704;2023-06-14T00:20:49;92099.22;;;11.50;64.67
52735;BME280;38631;47.572;10.704;2023-06-14T00:23:15;92095.16;;;11.43;64.27
52735;BME280;38631;47.572;10.704;2023-06-14T00:25:41;92080.00;;;11.14;64.76
52735;BME280;38631;47.572;10.704;2023-06-14T00:28:06;92079.34;;;10.70;66.85
52735;BME280;38631;47.572;10.704;2023-06-14T00:30:32;92089.88;;;10.32;68.34
52735;BME280;38631;47.572;10.704;2023-06-14T00:32:57;92088.94;;;10.45;67.09
52735;BME280;38631;47.572;10.704;2023-06-14T00:35:23;92093.63;;;10.31;68.50
52735;BME280;38631;47.572;10.704;2023-06-14T00:37:48;92087.22;;;10.49;67.78
52735;BME280;38631;47.572;10.704;2023-06-14T00:40:14;92100.44;;;10.75;68.45
52735;BME280;38631;47.572;10.704;2023-06-14T00:42:39;92093.34;;;10.88;67.10
52735;BME280;38631;47.572;10.704;2023-06-14T00:45:05;92086.91;;;10.16;68.22
52735;BME280;38631;47.572;10.704;2023-06-14T00:47:30;92082.03;;;10.53;68.45
52735;BME280;38631;47.572;10.704;2023-06-14T00:49:56;92100.75;;;10.65;68.69
52735;BME280;38631;47.572;10.704;2023-06-14T00:52:22;92085.50;;;10.19;68.41
52735;BME280;38631;47.572;10.704;2023-06-14T00:54:49;92084.09;;;10.47;69.34
52735;BME280;38631;47.572;10.704;2023-06-14T00:57:15;92084.38;;;10.54;68.19
52735;BME280;38631;47.572;10.704;2023-06-14T00:59:43;92096.25;;;9.96;69.55
52735;BME280;38631;47.572;10.704;2023-06-14T01:02:09;92092.22;;;10.33;69.64
52735;BME280;38631;47.572;10.704;2023-06-14T01:04:34;92088.63;;;10.03;70.06
52735;BME280;38631;47.572;10.704;2023-06-14T01:07:10;92091.75;;;10.40;69.38
52735;BME280;38631;47.572;10.704;2023-06-14T01:12:55;92084.09;;;10.38;69.27
52735;BME280;38631;47.572;10.704;2023-06-14T01:15:23;92089.69;;;10.54;68.49
52735;BME280;38631;47.572;10.704;2023-06-14T01:17:50;92089.22;;;10.61;68.82
52735;BME280;38631;47.572;10.704;2023-06-14T01:20:17;92079.72;;;9.99;70.60
52735;BME280;38631;47.572;10.704;2023-06-14T01:22:50;92088.31;;;9.96;72.21
52735;BME280;38631;47.572;10.704;2023-06-14T01:25:17;92082.19;;;9.95;70.76
52735;BME280;38631;47.572;10.704;2023-06-14T01:27:47;92088.16;;;10.19;70.30
52735;BME280;38631;47.572;10.704;2023-06-14T01:30:13;92086.72;;;10.12;70.48
52735;BME280;38631;47.572;10.704;2023-06-14T01:32:39;92087.50;;;10.48;69.94
52735;BME280;38631;47.572;10.704;2023-06-14T01:35:05;92083.94;;;10.44;70.02
52735;BME280;38631;47.572;10.704;2023-06-14T01:37:31;92085.00;;;10.25;70.89
52735;BME280;38631;47.572;10.704;2023-06-14T01:39:56;92069.88;;;10.17;70.58
52735;BME280;38631;47.572;10.704;2023-06-14T01:42:22;92075.66;;;10.10;71.35
52735;BME280;38631;47.572;10.704;2023-06-14T01:44:49;92074.56;;;9.77;71.59
52735;BME280;38631;47.572;10.704;2023-06-14T01:47:15;92078.16;;;9.81;71.43
52735;BME280;38631;47.572;10.704;2023-06-14T01:49:41;92065.66;;;9.90;72.20
52735;BME280;38631;47.572;10.704;2023-06-14T01:52:06;92072.84;;;10.15;71.23
52735;BME280;38631;47.572;10.704;2023-06-14T01:54:35;92078.00;;;10.38;70.86
52735;BME280;38631;47.572;10.704;2023-06-14T01:57:03;92073.94;;;10.49;69.62
52735;BME280;38631;47.572;10.704;2023-06-14T01:59:28;92085.97;;;10.29;70.03
52735;BME280;38631;47.572;10.704;2023-06-14T02:01:53;92074.56;;;9.85;71.71
52735;BME280;38631;47.572;10.704;2023-06-14T02:04:19;92064.19;;;9.40;72.34
52735;BME280;38631;47.572;10.704;2023-06-14T02:06:44;92071.09;;;9.50;73.04
52735;BME280;38631;47.572;10.704;2023-06-14T02:09:10;92062.09;;;9.86;73.00
52735;BME280;38631;47.572;10.704;2023-06-14T02:11:35;92062.34;;;9.49;72.90
52735;BME280;38631;47.572;10.704;2023-06-14T02:14:00;92064.72;;;9.77;72.52
52735;BME280;38631;47.572;10.704;2023-06-14T02:16:26;92058.34;;;10.04;71.91
52735;BME280;38631;47.572;10.704;2023-06-14T02:18:53;92056.63;;;10.26;71.80
52735;BME280;38631;47.572;10.704;2023-06-14T02:21:18;92060.53;;;10.11;71.53
52735;BME280;38631;47.572;10.704;2023-06-14T02:23:44;92056.78;;;10.03;72.16
52735;BME280;38631;47.572;10.704;2023-06-14T02:26:10;92056.72;;;9.42;74.69
52735;BME280;38631;47.572;10.704;2023-06-14T02:28:35;92065.31;;;9.48;72.40
52735;BME280;38631;47.572;10.704;2023-06-14T02:31:01;92063.00;;;8.98;76.10
52735;BME280;38631;47.572;10.704;2023-06-14T02:33:26;92064.53;;;9.39;74.84
52735;BME280;38631;47.572;10.704;2023-06-14T02:35:51;92066.50;;;9.16;74.70
52735;BME280;38631;47.572;10.704;2023-06-14T02:38:17;92065.16;;;9.36;74.82
52735;BME280;38631;47.572;10.704;2023-06-14T02:40:43;92058.19;;;9.66;73.77
52735;BME280;38631;47.572;10.704;2023-06-14T02:43:08;92061.28;;;9.50;74.14
52735;BME280;38631;47.572;10.704;2023-06-14T02:45:34;92050.69;;;9.50;73.63
52735;BME280;38631;47.572;10.704;2023-06-14T02:47:59;92063.16;;;9.67;74.02
52735;BME280;38631;47.572;10.704;2023-06-14T02:50:25;92057.09;;;9.76;73.36
52735;BME280;38631;47.572;10.704;2023-06-14T02:52:51;92061.16;;;9.82;73.18
52735;BME280;38631;47.572;10.704;2023-06-14T02:55:17;92063.31;;;9.80;73.37
52735;BME280;38631;47.572;10.704;2023-06-14T02:57:43;92061.88;;;9.47;73.86
52735;BME280;38631;47.572;10.704;2023-06-14T03:00:09;92064.00;;;9.11;74.75
52735;BME280;38631;47.572;10.704;2023-06-14T03:02:35;92072.09;;;9.14;73.70
52735;BME280;38631;47.572;10.704;2023-06-14T03:05:00;92068.81;;;9.17;73.70
52735;BME280;38631;47.572;10.704;2023-06-14T03:07:28;92064.13;;;8.65;76.10
52735;BME280;38631;47.572;10.704;2023-06-14T03:09:54;92071.47;;;8.77;77.23
52735;BME280;38631;47.572;10.704;2023-06-14T03:12:20;92066.56;;;8.93;75.31
52735;BME280;38631;47.572;10.704;2023-06-14T03:14:46;92074.47;;;9.24;74.98
52735;BME280;38631;47.572;10.704;2023-06-14T03:17:12;92080.94;;;9.09;75.27
52735;BME280;38631;47.572;10.704;2023-06-14T03:19:37;92078.88;;;9.55;75.01
52735;BME280;38631;47.572;10.704;2023-06-14T03:22:03;92074.31;;;9.29;74.74
52735;BME280;38631;47.572;10.704;2023-06-14T03:24:28;92073.91;;;9.54;74.49
52735;BME280;38631;47.572;10.704;2023-06-14T03:26:53;92083.59;;;9.58;74.62
52735;BME280;38631;47.572;10.704;2023-06-14T03:29:19;92080.28;;;8.95;75.82
52735;BME280;38631;47.572;10.704;2023-06-14T03:32:00;92078.78;;;9.03;76.28
52735;BME280;38631;47.572;10.704;2023-06-14T03:34:26;92090.50;;;9.19;75.50
52735;BME280;38631;47.572;10.704;2023-06-14T03:36:52;92086.88;;;9.15;75.55
52735;BME280;38631;47.572;10.704;2023-06-14T03:39:18;92087.25;;;9.31;75.33
52735;BME280;38631;47.572;10.704;2023-06-14T03:41:44;92089.31;;;9.43;74.94
52735;BME280;38631;47.572;10.704;2023-06-14T03:44:09;92085.41;;;9.32;75.65
52735;BME280;38631;47.572;10.704;2023-06-14T03:46:34;92092.59;;;9.00;76.66
52735;BME280;38631;47.572;10.704;2023-06-14T03:49:00;92097.53;;;8.93;76.23
52735;BME280;38631;47.572;10.704;2023-06-14T03:51:28;92085.69;;;9.21;76.43
52735;BME280;38631;47.572;10.704;2023-06-14T03:53:53;92095.94;;;9.23;76.32
52735;BME280;38631;47.572;10.704;2023-06-14T03:56:20;92099.84;;;9.17;77.13
52735;BME280;38631;47.572;10.704;2023-06-14T03:58:45;92106.31;;;9.42;75.90
52735;BME280;38631;47.572;10.704;2023-06-14T04:01:10;92109.72;;;9.42;76.19
52735;BME280;38631;47.572;10.704;2023-06-14T04:03:37;92115.09;;;9.77;74.72
52735;BME280;38631;47.572;10.704;2023-06-14T04:06:04;92110.59;;;9.86;74.67
52735;BME280;38631;47.572;10.704;2023-06-14T04:08:30;92118.69;;;9.72;75.45
52735;BME280;38631;47.572;10.704;2023-06-14T04:10:55;92119.78;;;9.23;77.74
52735;BME280;38631;47.572;10.704;2023-06-14T04:13:20;92113.28;;;9.29;77.34
52735;BME280;38631;47.572;10.704;2023-06-14T04:15:46;92116.19;;;9.59;77.08
52735;BME280;38631;47.572;10.704;2023-06-14T04:18:11;92119.75;;;9.63;78.24
52735;BME280;38631;47.572;10.704;2023-06-14T04:20:37;92127.59;;;9.77;77.23
52735;BME280;38631;47.572;10.704;2023-06-14T04:23:16;92139.97;;;9.99;77.62
52735;BME280;38631;47.572;10.704;2023-06-14T04:25:43;92133.59;;;10.34;74.94
52735;BME280;38631;47.572;10.704;2023-06-14T04:28:11;92128.88;;;10.23;76.21
52735;BME280;38631;47.572;10.704;2023-06-14T04:30:36;92127.50;;;10.34;76.00
52735;BME280;38631;47.572;10.704;2023-06-14T04:33:04;92123.56;;;10.66;75.01
52735;BME280;38631;47.572;10.704;2023-06-14T04:35:31;92120.38;;;10.90;74.91
52735;BME280;38631;47.572;10.704;2023-06-14T04:37:57;92136.28;;;11.08;74.39
52735;BME280;38631;47.572;10.704;2023-06-14T04:40:23;92131.72;;;11.17;74.47
52735;BME280;38631;47.572;10.704;2023-06-14T04:42:49;92136.97;;;11.34;74.00
52735;BME280;38631;47.572;10.704;2023-06-14T04:45:16;92130.66;;;11.48;73.35
52735;BME280;38631;47.572;10.704;2023-06-14T04:47:41;92139.38;;;11.57;71.84
52735;BME280;38631;47.572;10.704;2023-06-14T04:50:07;92120.41;;;11.67;68.55
52735;BME280;38631;47.572;10.704;2023-06-14T04:52:33;92143.31;;;11.80;68.83
52735;BME280;38631;47.572;10.704;2023-06-14T04:55:00;92135.81;;;12.12;67.76
52735;BME280;38631;47.572;10.704;2023-06-14T04:57:27;92128.69;;;12.25;65.89
52735;BME280;38631;47.572;10.704;2023-06-14T04:59:52;92132.75;;;12.43;65.51
52735;BME280;38631;47.572;10.704;2023-06-14T05:02:23;92135.03;;;12.12;64.80
52735;BME280;38631;47.572;10.704;2023-06-14T05:04:49;92122.88;;;12.65;63.47
52735;BME280;38631;47.572;10.704;2023-06-14T05:07:14;92128.72;;;12.91;64.55
52735;BME280;38631;47.572;10.704;2023-06-14T05:09:40;92120.00;;;13.15;62.41
52735;BME280;38631;47.572;10.704;2023-06-14T05:12:06;92133.06;;;13.29;61.92
52735;BME280;38631;47.572;10.704;2023-06-14T05:14:33;92132.41;;;13.32;60.27
52735;BME280;38631;47.572;10.704;2023-06-14T05:16:58;92137.41;;;13.46;60.05
52735;BME280;38631;47.572;10.704;2023-06-14T05:19:24;92145.34;;;13.79;60.00
52735;BME280;38631;47.572;10.704;2023-06-14T05:21:50;92135.75;;;13.66;61.25
52735;BME280;38631;47.572;10.704;2023-06-14T05:24:16;92129.19;;;13.76;61.03
52735;BME280;38631;47.572;10.704;2023-06-14T05:26:45;92140.88;;;13.71;60.15
52735;BME280;38631;47.572;10.704;2023-06-14T05:29:11;92138.97;;;13.47;59.43
52735;BME280;38631;47.572;10.704;2023-06-14T05:31:37;92139.13;;;13.17;60.59
52735;BME280;38631;47.572;10.704;2023-06-14T05:34:03;92136.88;;;13.53;59.62
52735;BME280;38631;47.572;10.704;2023-06-14T05:36:29;92136.31;;;13.96;58.44
52735;BME280;38631;47.572;10.704;2023-06-14T05:38:55;92140.81;;;13.22;58.09
52735;BME280;38631;47.572;10.704;2023-06-14T05:41:25;92142.53;;;14.00;58.59
52735;BME280;38631;47.572;10.704;2023-06-14T05:43:51;92140.00;;;14.57;55.50
52735;BME280;38631;47.572;10.704;2023-06-14T05:46:17;92135.63;;;14.64;57.41
52735;BME280;38631;47.572;10.704;2023-06-14T05:48:48;92136.78;;;14.79;54.04
52735;BME280;38631;47.572;10.704;2023-06-14T05:51:14;92131.09;;;14.53;56.97
52735;BME280;38631;47.572;10.704;2023-06-14T05:53:39;92136.56;;;14.84;56.67
52735;BME280;38631;47.572;10.704;2023-06-14T05:56:05;92137.44;;;14.48;55.76
52735;BME280;38631;47.572;10.704;2023-06-14T05:58:31;92150.34;;;14.86;56.94
52735;BME280;38631;47.572;10.704;2023-06-14T06:00:56;92143.56;;;14.89;57.59
52735;BME280;38631;47.572;10.704;2023-06-14T06:03:23;92146.56;;;15.16;56.00
52735;BME280;38631;47.572;10.704;2023-06-14T06:05:48;92154.00;;;15.38;54.58
52735;BME280;38631;47.572;10.704;2023-06-14T06:08:14;92159.28;;;15.50;55.74
52735;BME280;38631;47.572;10.704;2023-06-14T06:10:39;92147.63;;;15.43;56.33
52735;BME280;38631;47.572;10.704;2023-06-14T06:13:05;92155.63;;;15.71;55.10
52735;BME280;38631;47.572;10.704;2023-06-14T06:15:30;92149.97;;;15.60;53.69
52735;BME280;38631;47.572;10.704;2023-06-14T06:17:56;92154.53;;;15.60;54.07
52735;BME280;38631;47.572;10.704;2023-06-14T06:20:22;92140.56;;;15.66;52.07
52735;BME280;38631;47.572;10.704;2023-06-14T06:22:53;92134.59;;;15.57;53.83
52735;BME280;38631;47.572;10.704;2023-06-14T06:25:19;92146.50;;;15.60;54.34
52735;BME280;38631;47.572;10.704;2023-06-14T06:27:44;92146.88;;;15.74;53.73
52735;BME280;38631;47.572;10.704;2023-06-14T06:30:10;92157.88;;;16.20;52.98
52735;BME280;38631;47.572;10.704;2023-06-14T06:32:36;92145.63;;;16.19;53.18
52735;BME280;38631;47.572;10.704;2023-06-14T06:35:01;92156.09;;;16.08;54.42
52735;BME280;38631;47.572;10.704;2023-06-14T06:37:27;92151.31;;;16.17;54.22
52735;BME280;38631;47.572;10.704;2023-06-14T06:39:52;92156.50;;;16.26;54.49
52735;BME280;38631;47.572;10.704;2023-06-14T06:42:18;92162.97;;;16.41;51.84
52735;BME280;38631;47.572;10.704;2023-06-14T06:44:43;92166.38;;;16.06;53.54
52735;BME280;38631;47.572;10.704;2023-06-14T06:47:08;92167.16;;;16.23;52.07
52735;BME280;38631;47.572;10.704;2023-06-14T06:49:36;92167.50;;;16.21;52.45
52735;BME280;38631;47.572;10.704;2023-06-14T06:52:06;92162.75;;;16.50;53.09
52735;BME280;38631;47.572;10.704;2023-06-14T06:54:32;92176.38;;;16.96;51.89
52735;BME280;38631;47.572;10.704;2023-06-14T06:56:58;92178.00;;;16.81;52.50
52735;BME280;38631;47.572;10.704;2023-06-14T06:59:24;92171.97;;;16.17;52.45
52735;BME280;38631;47.572;10.704;2023-06-14T07:01:49;92183.00;;;17.02;51.00
52735;BME280;38631;47.572;10.704;2023-06-14T07:04:15;92186.75;;;16.97;51.47
52735;BME280;38631;47.572;10.704;2023-06-14T07:06:41;92183.91;;;17.10;50.62
52735;BME280;38631;47.572;10.704;2023-06-14T07:09:07;92178.56;;;17.10;50.55
52735;BME280;38631;47.572;10.704;2023-06-14T07:11:37;92176.59;;;17.06;52.14
52735;BME280;38631;47.572;10.704;2023-06-14T07:14:03;92181.22;;;17.29;51.71
52735;BME280;38631;47.572;10.704;2023-06-14T07:16:28;92186.34;;;17.38;48.29
52735;BME280;38631;47.572;10.704;2023-06-14T07:18:54;92180.91;;;17.54;49.40
52735;BME280;38631;47.572;10.704;2023-06-14T07:21:19;92179.28;;;17.49;49.79
52735;BME280;38631;47.572;10.704;2023-06-14T07:23:45;92179.63;;;17.90;48.27
52735;BME280;38631;47.572;10.704;2023-06-14T07:26:10;92193.06;;;17.70;49.35
52735;BME280;38631;47.572;10.704;2023-06-14T07:28:35;92188.41;;;17.44;48.43
52735;BME280;38631;47.572;10.704;2023-06-14T07:31:01;92179.66;;;17.70;48.44
52735;BME280;38631;47.572;10.704;2023-06-14T07:33:27;92194.00;;;17.78;47.55
52735;BME280;38631;47.572;10.704;2023-06-14T07:35:53;92187.44;;;18.22;46.81
52735;BME280;38631;47.572;10.704;2023-06-14T07:38:18;92189.47;;;17.82;46.18
52735;BME280;38631;47.572;10.704;2023-06-14T07:40:43;92189.84;;;17.81;44.52
52735;BME280;38631;47.572;10.704;2023-06-14T07:43:09;92183.94;;;17.95;43.56
52735;BME280;38631;47.572;10.704;2023-06-14T07:45:34;92188.34;;;18.06;43.14
52735;BME280;38631;47.572;10.704;2023-06-14T07:48:00;92186.00;;;17.59;40.91
52735;BME280;38631;47.572;10.704;2023-06-14T07:50:25;92186.16;;;17.69;45.03
52735;BME280;38631;47.572;10.704;2023-06-14T07:52:50;92187.13;;;18.27;43.15
52735;BME280;38631;47.572;10.704;2023-06-14T07:55:16;92191.53;;;18.16;40.83
52735;BME280;38631;47.572;10.704;2023-06-14T07:57:41;92192.94;;;18.06;42.68
52735;BME280;38631;47.572;10.704;2023-06-14T08:00:08;92186.69;;;18.25;42.08
52735;BME280;38631;47.572;10.704;2023-06-14T08:02:35;92189.34;;;18.48;42.45
52735;BME280;38631;47.572;10.704;2023-06-14T08:05:01;92183.56;;;18.19;42.84
52735;BME280;38631;47.572;10.704;2023-06-14T08:07:26;92186.28;;;18.23;42.12
52735;BME280;38631;47.572;10.704;2023-06-14T08:09:52;92190.13;;;18.22;41.19
52735;BME280;38631;47.572;10.704;2023-06-14T08:12:17;92191.88;;;18.64;41.88
52735;BME280;38631;47.572;10.704;2023-06-14T08:14:43;92191.06;;;18.60;39.61
52735;BME280;38631;47.572;10.704;2023-06-14T08:17:08;92183.59;;;18.23;40.99
52735;BME280;38631;47.572;10.704;2023-06-14T08:19:34;92186.69;;;18.25;40.89
52735;BME280;38631;47.572;10.704;2023-06-14T08:22:00;92193.06;;;18.40;43.25
52735;BME280;38631;47.572;10.704;2023-06-14T08:24:25;92192.34;;;18.16;42.75
52735;BME280;38631;47.572;10.704;2023-06-14T08:26:53;92185.03;;;18.70;42.43
52735;BME280;38631;47.572;10.704;2023-06-14T08:29:19;92191.22;;;18.44;42.47
52735;BME280;38631;47.572;10.704;2023-06-14T08:31:44;92186.53;;;18.41;44.67
52735;BME280;38631;47.572;10.704;2023-06-14T08:34:10;92186.53;;;18.67;45.65
52735;BME280;38631;47.572;10.704;2023-06-14T08:36:36;92183.25;;;19.08;44.10
52735;BME280;38631;47.572;10.704;2023-06-14T08:39:01;92186.97;;;18.69;41.94
52735;BME280;38631;47.572;10.704;2023-06-14T08:41:28;92177.03;;;18.73;42.95
52735;BME280;38631;47.572;10.704;2023-06-14T08:43:54;92185.41;;;18.95;43.94
52735;BME280;38631;47.572;10.704;2023-06-14T08:46:20;92181.78;;;19.14;41.11
52735;BME280;38631;47.572;10.704;2023-06-14T08:48:48;92186.97;;;19.30;43.14
52735;BME280;38631;47.572;10.704;2023-06-14T08:51:17;92180.97;;;19.10;42.24
52735;BME280;38631;47.572;10.704;2023-06-14T08:53:43;92189.06;;;19.13;42.21
52735;BME280;38631;47.572;10.704;2023-06-14T08:56:09;92187.53;;;19.12;41.65
52735;BME280;38631;47.572;10.704;2023-06-14T08:58:40;92196.44;;;19.16;41.39
52735;BME280;38631;47.572;10.704;2023-06-14T09:01:08;92193.50;;;19.29;40.03
52735;BME280;38631;47.572;10.704;2023-06-14T09:03:40;92191.19;;;19.31;39.80
52735;BME280;38631;47.572;10.704;2023-06-14T09:06:06;92193.94;;;19.34;39.34
52735;BME280;38631;47.572;10.704;2023-06-14T09:08:34;92193.97;;;19.04;39.67
52735;BME280;38631;47.572;10.704;2023-06-14T09:11:01;92194.72;;;19.01;40.74
52735;BME280;38631;47.572;10.704;2023-06-14T09:13:27;92197.22;;;18.87;39.07
52735;BME280;38631;47.572;10.704;2023-06-14T09:15:52;92189.03;;;19.10;40.97
52735;BME280;38631;47.572;10.704;2023-06-14T09:18:18;92189.59;;;18.92;39.91
52735;BME280;38631;47.572;10.704;2023-06-14T09:20:45;92189.16;;;19.20;39.66
52735;BME280;38631;47.572;10.704;2023-06-14T09:23:12;92180.19;;;19.43;41.10
52735;BME280;38631;47.572;10.704;2023-06-14T09:25:45;92188.69;;;19.11;38.92
52735;BME280;38631;47.572;10.704;2023-06-14T09:28:11;92193.63;;;19.39;39.64
52735;BME280;38631;47.572;10.704;2023-06-14T09:30:37;92195.88;;;19.34;38.90
52735;BME280;38631;47.572;10.704;2023-06-14T09:33:03;92195.47;;;19.32;38.55
52735;BME280;38631;47.572;10.704;2023-06-14T09:35:31;92193.34;;;19.18;37.58
52735;BME280;38631;47.572;10.704;2023-06-14T09:37:56;92199.50;;;19.18;37.70
52735;BME280;38631;47.572;10.704;2023-06-14T09:40:22;92203.69;;;19.12;36.95
52735;BME280;38631;47.572;10.704;2023-06-14T09:42:47;92206.56;;;19.27;37.10
52735;BME280;38631;47.572;10.704;2023-06-14T09:45:13;92191.66;;;19.36;37.92
52735;BME280;38631;47.572;10.704;2023-06-14T09:47:39;92202.06;;;19.38;38.18
52735;BME280;38631;47.572;10.704;2023-06-14T09:50:04;92196.13;;;19.21;38.99
52735;BME280;38631;47.572;10.704;2023-06-14T09:52:31;92203.94;;;19.34;37.47
52735;BME280;38631;47.572;10.704;2023-06-14T09:54:59;92197.97;;;19.17;36.43
52735;BME280;38631;47.572;10.704;2023-06-14T09:57:25;92194.69;;;19.31;39.64
52735;BME280;38631;47.572;10.704;2023-06-14T09:59:53;92197.16;;;19.47;39.26
52735;BME280;38631;47.572;10.704;2023-06-14T10:02:25;92197.56;;;19.49;39.65
52735;BME280;38631;47.572;10.704;2023-06-14T10:04:56;92199.81;;;19.81;39.79
52735;BME280;38631;47.572;10.704;2023-06-14T10:07:25;92201.41;;;19.48;39.43
52735;BME280;38631;47.572;10.704;2023-06-14T10:09:52;92196.41;;;19.50;40.90
52735;BME280;38631;47.572;10.704;2023-06-14T10:12:18;92193.31;;;19.48;40.81
52735;BME280;38631;47.572;10.704;2023-06-14T10:14:50;92200.00;;;19.61;40.13
52735;BME280;38631;47.572;10.704;2023-06-14T10:17:33;92199.28;;;19.64;40.67
52735;BME280;38631;47.572;10.704;2023-06-14T10:23:01;92201.19;;;19.64;40.75
52735;BME280;38631;47.572;10.704;2023-06-14T10:25:29;92201.81;;;19.50;40.14
52735;BME280;38631;47.572;10.704;2023-06-14T10:30:38;92207.63;;;19.56;40.96
52735;BME280;38631;47.572;10.704;2023-06-14T10:33:05;92203.88;;;19.30;40.67
52735;BME280;38631;47.572;10.704;2023-06-14T10:35:35;92209.38;;;19.37;40.92
52735;BME280;38631;47.572;10.704;2023-06-14T10:38:08;92202.22;;;19.18;39.11
52735;BME280;38631;47.572;10.704;2023-06-14T10:40:34;92201.38;;;19.45;40.81
52735;BME280;38631;47.572;10.704;2023-06-14T10:43:00;92195.94;;;19.41;40.74
52735;BME280;38631;47.572;10.704;2023-06-14T10:45:25;92199.16;;;19.54;41.94
52735;BME280;38631;47.572;10.704;2023-06-14T10:47:50;92206.75;;;19.45;39.13
52735;BME280;38631;47.572;10.704;2023-06-14T10:50:27;92201.63;;;19.36;40.74
52735;BME280;38631;47.572;10.704;2023-06-14T10:52:53;92193.81;;;19.57;41.44
52735;BME280;38631;47.572;10.704;2023-06-14T10:55:19;92202.22;;;19.52;42.05
52735;BME280;38631;47.572;10.704;2023-06-14T10:57:52;92191.66;;;19.36;38.57
52735;BME280;38631;47.572;10.704;2023-06-14T11:00:22;92202.63;;;19.54;40.56
52735;BME280;38631;47.572;10.704;2023-06-14T11:05:54;92207.34;;;19.64;38.96
52735;BME280;38631;47.572;10.704;2023-06-14T11:08:27;92204.94;;;19.56;39.38
52735;BME280;38631;47.572;10.704;2023-06-14T11:10:59;92205.00;;;19.59;41.06
52735;BME280;38631;47.572;10.704;2023-06-14T11:13:26;92199.03;;;19.77;40.75
52735;BME280;38631;47.572;10.704;2023-06-14T11:15:51;92201.69;;;19.73;40.54
52735;BME280;38631;47.572;10.704;2023-06-14T11:18:19;92202.94;;;19.83;39.09
52735;BME280;38631;47.572;10.704;2023-06-14T11:20:46;92201.19;;;19.64;38.86
52735;BME280;38631;47.572;10.704;2023-06-14T11:23:12;92196.09;;;19.55;38.49
52735;BME280;38631;47.572;10.704;2023-06-14T11:25:37;92199.19;;;19.57;38.05
52735;BME280;38631;47.572;10.704;2023-06-14T11:28:03;92195.66;;;19.87;40.61
52735;BME280;38631;47.572;10.704;2023-06-14T11:30:28;92207.66;;;19.93;38.88
52735;BME280;38631;47.572;10.704;2023-06-14T11:32:54;92201.41;;;19.85;39.50
52735;BME280;38631;47.572;10.704;2023-06-14T11:35:23;92197.22;;;19.88;39.12
52735;BME280;38631;47.572;10.704;2023-06-14T11:37:53;92199.78;;;19.74;37.46
52735;BME280;38631;47.572;10.704;2023-06-14T11:40:23;92208.25;;;20.17;37.67
52735;BME280;38631;47.572;10.704;2023-06-14T11:42:49;92195.00;;;20.01;38.22
52735;BME280;38631;47.572;10.704;2023-06-14T11:45:14;92192.78;;;20.06;36.87
52735;BME280;38631;47.572;10.704;2023-06-14T11:47:39;92188.56;;;20.09;38.14
52735;BME280;38631;47.572;10.704;2023-06-14T11:50:07;92190.72;;;19.96;37.17
52735;BME280;38631;47.572;10.704;2023-06-14T11:52:33;92193.56;;;20.11;37.68
52735;BME280;38631;47.572;10.704;2023-06-14T11:54:59;92192.63;;;19.92;37.25
52735;BME280;38631;47.572;10.704;2023-06-14T11:57:26;92193.91;;;20.05;37.63
52735;BME280;38631;47.572;10.704;2023-06-14T11:59:51;92190.72;;;19.96;37.18
52735;BME280;38631;47.572;10.704;2023-06-14T12:02:18;92199.28;;;20.05;37.23
52735;BME280;38631;47.572;10.704;2023-06-14T12:04:46;92187.19;;;19.85;36.80
52735;BME280;38631;47.572;10.704;2023-06-14T12:07:13;92187.50;;;19.76;38.02
52735;BME280;38631;47.572;10.704;2023-06-14T12:12:17;92198.53;;;20.05;38.28
52735;BME280;38631;47.572;10.704;2023-06-14T12:14:42;92190.13;;;19.69;37.51
52735;BME280;38631;47.572;10.704;2023-06-14T12:17:08;92187.84;;;19.75;38.33
52735;BME280;38631;47.572;10.704;2023-06-14T12:19:40;92189.56;;;19.94;37.43
52735;BME280;38631;47.572;10.704;2023-06-14T12:22:09;92181.19;;;20.06;39.31
52735;BME280;38631;47.572;10.704;2023-06-14T12:24:34;92186.22;;;20.11;39.65
52735;BME280;38631;47.572;10.704;2023-06-14T12:27:00;92189.31;;;20.10;37.96
52735;BME280;38631;47.572;10.704;2023-06-14T12:29:28;92183.13;;;20.05;37.46
52735;BME280;38631;47.572;10.704;2023-06-14T12:31:53;92195.63;;;20.28;38.57
52735;BME280;38631;47.572;10.704;2023-06-14T12:34:21;92187.81;;;20.16;38.62
52735;BME280;38631;47.572;10.704;2023-06-14T12:36:47;92198.50;;;20.01;38.50
52735;BME280;38631;47.572;10.704;2023-06-14T12:39:12;92190.06;;;20.06;37.76
52735;BME280;38631;47.572;10.704;2023-06-14T12:41:38;92194.66;;;20.02;37.17
52735;BME280;38631;47.572;10.704;2023-06-14T12:44:03;92194.66;;;20.06;37.82
52735;BME280;38631;47.572;10.704;2023-06-14T12:46:31;92191.63;;;20.11;39.27
52735;BME280;38631;47.572;10.704;2023-06-14T12:48:57;92191.59;;;20.04;37.04
52735;BME280;38631;47.572;10.704;2023-06-14T12:51:23;92193.84;;;19.98;37.35
52735;BME280;38631;47.572;10.704;2023-06-14T12:53:49;92188.16;;;20.11;38.16
52735;BME280;38631;47.572;10.704;2023-06-14T12:56:14;92203.63;;;20.17;38.34
52735;BME280;38631;47.572;10.704;2023-06-14T12:58:41;92198.53;;;20.05;39.08
52735;BME280;38631;47.572;10.704;2023-06-14T13:01:07;92206.59;;;20.05;36.96
52735;BME280;38631;47.572;10.704;2023-06-14T13:03:32;92205.34;;;19.92;37.23